sensor_id;sensor_type;location;lat;lon;timestamp;P1;durP1;ratioP1;P2;durP2;ratioP2
58302;SDS011;44109;52.398;7.024;2024-02-21T00:00:36;38.58;;;20.98;;
58302;SDS011;44109;52.398;7.024;2024-02-21T00:03:04;38.83;;;22.63;;
58302;SDS011;44109;52.398;7.024;2024-02-21T00:05:31;31.52;;;19.17;;
58302;SDS011;44109;52.398;7.024;2024-02-21T00:07:59;43.70;;;21.08;;
58302;SDS011;44109;52.398;7.024;2024-02-21T00:10:27;41.85;;;23.02;;
58302;SDS011;44109;52.398;7.024;2024-02-21T00:12:56;37.60;;;19.42;;
58302;SDS011;44109;52.398;7.024;2024-02-21T00:15:25;41.95;;;21.58;;
58302;SDS011;44109;52.398;7.024;2024-02-21T00:17:52;28.90;;;16.80;;
58302;SDS011;44109;52.398;7.024;2024-02-21T00:20:20;36.97;;;18.75;;
58302;SDS011;44109;52.398;7.024;2024-02-21T00:22:48;43.90;;;23.98;;
58302;SDS011;44109;52.398;7.024;2024-02-21T00:25:16;37.13;;;19.83;;
58302;SDS011;44109;52.398;7.024;2024-02-21T00:27:43;40.75;;;21.55;;
58302;SDS011;44109;52.398;7.024;2024-02-21T00:30:13;44.20;;;24.70;;
58302;SDS011;44109;52.398;7.024;2024-02-21T00:32:40;37.17;;;22.58;;
58302;SDS011;44109;52.398;7.024;2024-02-21T00:35:08;33.45;;;18.95;;
58302;SDS011;44109;52.398;7.024;2024-02-21T00:37:36;41.67;;;21.85;;
58302;SDS011;44109;52.398;7.024;2024-02-21T00:40:04;43.00;;;25.13;;
58302;SDS011;44109;52.398;7.024;2024-02-21T00:42:33;41.65;;;22.45;;
58302;SDS011;44109;52.398;7.024;2024-02-21T00:45:00;35.38;;;19.23;;
58302;SDS011;44109;52.398;7.024;2024-02-21T00:47:29;38.30;;;21.58;;
58302;SDS011;44109;52.398;7.024;2024-02-21T00:49:57;32.20;;;17.58;;
58302;SDS011;44109;52.398;7.024;2024-02-21T00:52:24;34.53;;;21.30;;
58302;SDS011;44109;52.398;7.024;2024-02-21T00:54:52;35.75;;;20.60;;
58302;SDS011;44109;52.398;7.024;2024-02-21T00:57:20;34.97;;;19.98;;
58302;SDS011;44109;52.398;7.024;2024-02-21T00:59:48;30.40;;;19.35;;
58302;SDS011;44109;52.398;7.024;2024-02-21T01:02:15;32.05;;;18.13;;
58302;SDS011;44109;52.398;7.024;2024-02-21T01:04:44;36.95;;;19.33;;
58302;SDS011;44109;52.398;7.024;2024-02-21T01:07:12;32.95;;;19.70;;
58302;SDS011;44109;52.398;7.024;2024-02-21T01:09:40;32.97;;;18.17;;
58302;SDS011;44109;52.398;7.024;2024-02-21T01:12:08;34.88;;;18.95;;
58302;SDS011;44109;52.398;7.024;2024-02-21T01:14:35;35.75;;;19.30;;
58302;SDS011;44109;52.398;7.024;2024-02-21T01:17:03;42.20;;;22.40;;
58302;SDS011;44109;52.398;7.024;2024-02-21T01:19:32;36.78;;;20.92;;
58302;SDS011;44109;52.398;7.024;2024-02-21T01:22:01;31.75;;;19.05;;
58302;SDS011;44109;52.398;7.024;2024-02-21T01:24:28;29.27;;;17.73;;
58302;SDS011;44109;52.398;7.024;2024-02-21T01:26:56;36.78;;;20.08;;
58302;SDS011;44109;52.398;7.024;2024-02-21T01:29:24;35.00;;;19.48;;
58302;SDS011;44109;52.398;7.024;2024-02-21T01:31:51;33.90;;;19.35;;
58302;SDS011;44109;52.398;7.024;2024-02-21T01:34:19;32.08;;;18.58;;
58302;SDS011;44109;52.398;7.024;2024-02-21T01:36:46;30.50;;;16.95;;
58302;SDS011;44109;52.398;7.024;2024-02-21T01:39:15;34.58;;;21.58;;
58302;SDS011;44109;52.398;7.024;2024-02-21T01:41:43;30.98;;;17.70;;
58302;SDS011;44109;52.398;7.024;2024-02-21T01:44:11;34.92;;;22.55;;
58302;SDS011;44109;52.398;7.024;2024-02-21T01:46:38;30.27;;;17.90;;
58302;SDS011;44109;52.398;7.024;2024-02-21T01:49:06;37.85;;;19.40;;
58302;SDS011;44109;52.398;7.024;2024-02-21T01:51:34;33.72;;;18.40;;
58302;SDS011;44109;52.398;7.024;2024-02-21T01:54:06;31.83;;;18.63;;
58302;SDS011;44109;52.398;7.024;2024-02-21T01:56:35;30.40;;;18.38;;
58302;SDS011;44109;52.398;7.024;2024-02-21T01:59:03;27.25;;;16.95;;
58302;SDS011;44109;52.398;7.024;2024-02-21T02:01:32;26.77;;;15.98;;
58302;SDS011;44109;52.398;7.024;2024-02-21T02:04:00;33.38;;;18.80;;
58302;SDS011;44109;52.398;7.024;2024-02-21T02:06:28;31.70;;;18.77;;
58302;SDS011;44109;52.398;7.024;2024-02-21T02:08:58;30.05;;;17.83;;
58302;SDS011;44109;52.398;7.024;2024-02-21T02:11:25;28.33;;;15.05;;
58302;SDS011;44109;52.398;7.024;2024-02-21T02:13:55;28.38;;;17.02;;
58302;SDS011;44109;52.398;7.024;2024-02-21T02:16:24;33.25;;;17.85;;
58302;SDS011;44109;52.398;7.024;2024-02-21T02:18:51;29.63;;;16.92;;
58302;SDS011;44109;52.398;7.024;2024-02-21T02:21:22;29.63;;;16.35;;
58302;SDS011;44109;52.398;7.024;2024-02-21T02:23:57;32.05;;;15.05;;
58302;SDS011;44109;52.398;7.024;2024-02-21T02:26:26;37.28;;;17.95;;
58302;SDS011;44109;52.398;7.024;2024-02-21T02:28:54;29.00;;;17.88;;
58302;SDS011;44109;52.398;7.024;2024-02-21T02:31:21;32.78;;;19.30;;
58302;SDS011;44109;52.398;7.024;2024-02-21T02:33:49;28.65;;;16.30;;
58302;SDS011;44109;52.398;7.024;2024-02-21T02:36:17;27.90;;;18.20;;
58302;SDS011;44109;52.398;7.024;2024-02-21T02:38:45;26.50;;;17.08;;
58302;SDS011;44109;52.398;7.024;2024-02-21T02:41:14;26.58;;;16.08;;
58302;SDS011;44109;52.398;7.024;2024-02-21T02:43:42;28.45;;;18.10;;
58302;SDS011;44109;52.398;7.024;2024-02-21T02:46:09;30.38;;;15.65;;
58302;SDS011;44109;52.398;7.024;2024-02-21T02:48:37;36.15;;;18.58;;
58302;SDS011;44109;52.398;7.024;2024-02-21T02:51:05;31.38;;;17.92;;
58302;SDS011;44109;52.398;7.024;2024-02-21T02:53:32;32.20;;;19.88;;
58302;SDS011;44109;52.398;7.024;2024-02-21T02:56:00;31.05;;;16.73;;
58302;SDS011;44109;52.398;7.024;2024-02-21T02:58:29;32.67;;;17.95;;
58302;SDS011;44109;52.398;7.024;2024-02-21T03:00:56;36.78;;;17.52;;
58302;SDS011;44109;52.398;7.024;2024-02-21T03:03:24;31.17;;;17.95;;
58302;SDS011;44109;52.398;7.024;2024-02-21T03:05:51;26.35;;;15.20;;
58302;SDS011;44109;52.398;7.024;2024-02-21T03:08:19;31.20;;;17.38;;
58302;SDS011;44109;52.398;7.024;2024-02-21T03:10:48;26.85;;;17.63;;
58302;SDS011;44109;52.398;7.024;2024-02-21T03:13:16;33.33;;;19.08;;
58302;SDS011;44109;52.398;7.024;2024-02-21T03:15:45;29.02;;;16.27;;
58302;SDS011;44109;52.398;7.024;2024-02-21T03:18:12;30.10;;;19.15;;
58302;SDS011;44109;52.398;7.024;2024-02-21T03:20:40;24.73;;;17.27;;
58302;SDS011;44109;52.398;7.024;2024-02-21T03:23:08;28.67;;;17.30;;
58302;SDS011;44109;52.398;7.024;2024-02-21T03:25:35;33.05;;;18.73;;
58302;SDS011;44109;52.398;7.024;2024-02-21T03:28:03;28.92;;;16.90;;
58302;SDS011;44109;52.398;7.024;2024-02-21T03:30:31;28.70;;;16.77;;
58302;SDS011;44109;52.398;7.024;2024-02-21T03:33:01;23.67;;;15.20;;
58302;SDS011;44109;52.398;7.024;2024-02-21T03:35:30;25.35;;;16.85;;
58302;SDS011;44109;52.398;7.024;2024-02-21T03:37:57;35.13;;;18.80;;
58302;SDS011;44109;52.398;7.024;2024-02-21T03:40:26;28.35;;;17.00;;
58302;SDS011;44109;52.398;7.024;2024-02-21T03:42:55;28.88;;;19.35;;
58302;SDS011;44109;52.398;7.024;2024-02-21T03:45:22;43.30;;;23.95;;
58302;SDS011;44109;52.398;7.024;2024-02-21T03:47:50;32.90;;;20.08;;
58302;SDS011;44109;52.398;7.024;2024-02-21T03:50:19;36.42;;;22.65;;
58302;SDS011;44109;52.398;7.024;2024-02-21T03:52:47;35.45;;;21.33;;
58302;SDS011;44109;52.398;7.024;2024-02-21T03:55:15;38.33;;;21.05;;
58302;SDS011;44109;52.398;7.024;2024-02-21T03:57:42;27.42;;;17.88;;
58302;SDS011;44109;52.398;7.024;2024-02-21T04:00:10;42.67;;;23.73;;
58302;SDS011;44109;52.398;7.024;2024-02-21T04:02:41;30.83;;;18.83;;
58302;SDS011;44109;52.398;7.024;2024-02-21T04:05:09;37.08;;;19.52;;
58302;SDS011;44109;52.398;7.024;2024-02-21T04:07:39;34.85;;;19.60;;
58302;SDS011;44109;52.398;7.024;2024-02-21T04:10:07;36.80;;;22.10;;
58302;SDS011;44109;52.398;7.024;2024-02-21T04:12:35;45.85;;;28.38;;
58302;SDS011;44109;52.398;7.024;2024-02-21T04:15:05;45.97;;;23.85;;
58302;SDS011;44109;52.398;7.024;2024-02-21T04:17:34;34.58;;;21.02;;
58302;SDS011;44109;52.398;7.024;2024-02-21T04:20:02;30.77;;;18.77;;
58302;SDS011;44109;52.398;7.024;2024-02-21T04:22:33;31.58;;;19.52;;
58302;SDS011;44109;52.398;7.024;2024-02-21T04:25:02;32.28;;;17.80;;
58302;SDS011;44109;52.398;7.024;2024-02-21T04:27:31;40.58;;;22.60;;
58302;SDS011;44109;52.398;7.024;2024-02-21T04:29:59;27.13;;;17.25;;
58302;SDS011;44109;52.398;7.024;2024-02-21T04:32:27;32.55;;;17.85;;
58302;SDS011;44109;52.398;7.024;2024-02-21T04:34:54;28.30;;;17.88;;
58302;SDS011;44109;52.398;7.024;2024-02-21T04:37:22;41.42;;;25.55;;
58302;SDS011;44109;52.398;7.024;2024-02-21T04:39:50;35.65;;;22.25;;
58302;SDS011;44109;52.398;7.024;2024-02-21T04:42:19;29.98;;;18.30;;
58302;SDS011;44109;52.398;7.024;2024-02-21T04:44:47;41.22;;;24.50;;
58302;SDS011;44109;52.398;7.024;2024-02-21T04:47:14;39.10;;;19.55;;
58302;SDS011;44109;52.398;7.024;2024-02-21T04:49:42;32.05;;;18.85;;
58302;SDS011;44109;52.398;7.024;2024-02-21T04:52:09;36.47;;;22.63;;
58302;SDS011;44109;52.398;7.024;2024-02-21T04:54:37;43.25;;;23.52;;
58302;SDS011;44109;52.398;7.024;2024-02-21T04:57:05;31.05;;;19.85;;
58302;SDS011;44109;52.398;7.024;2024-02-21T04:59:34;45.08;;;26.38;;
58302;SDS011;44109;52.398;7.024;2024-02-21T05:02:02;34.33;;;18.77;;
58302;SDS011;44109;52.398;7.024;2024-02-21T05:04:29;41.17;;;23.92;;
58302;SDS011;44109;52.398;7.024;2024-02-21T05:06:57;30.67;;;17.23;;
58302;SDS011;44109;52.398;7.024;2024-02-21T05:09:27;33.83;;;17.52;;
58302;SDS011;44109;52.398;7.024;2024-02-21T05:11:54;33.00;;;20.65;;
58302;SDS011;44109;52.398;7.024;2024-02-21T05:14:22;45.22;;;25.13;;
58302;SDS011;44109;52.398;7.024;2024-02-21T05:16:51;34.60;;;18.17;;
58302;SDS011;44109;52.398;7.024;2024-02-21T05:19:18;39.67;;;22.58;;
58302;SDS011;44109;52.398;7.024;2024-02-21T05:21:46;33.53;;;18.40;;
58302;SDS011;44109;52.398;7.024;2024-02-21T05:24:14;35.60;;;19.58;;
58302;SDS011;44109;52.398;7.024;2024-02-21T05:26:41;41.78;;;22.02;;
58302;SDS011;44109;52.398;7.024;2024-02-21T05:29:10;44.28;;;21.52;;
58302;SDS011;44109;52.398;7.024;2024-02-21T05:31:56;42.30;;;19.55;;
58302;SDS011;44109;52.398;7.024;2024-02-21T05:34:24;45.75;;;23.30;;
58302;SDS011;44109;52.398;7.024;2024-02-21T05:36:52;35.47;;;18.90;;
58302;SDS011;44109;52.398;7.024;2024-02-21T05:39:20;33.72;;;20.88;;
58302;SDS011;44109;52.398;7.024;2024-02-21T05:41:48;30.40;;;17.45;;
58302;SDS011;44109;52.398;7.024;2024-02-21T05:44:16;30.17;;;17.52;;
58302;SDS011;44109;52.398;7.024;2024-02-21T05:46:45;26.90;;;17.88;;
58302;SDS011;44109;52.398;7.024;2024-02-21T05:49:14;31.10;;;18.08;;
58302;SDS011;44109;52.398;7.024;2024-02-21T05:51:42;28.63;;;15.75;;
58302;SDS011;44109;52.398;7.024;2024-02-21T05:54:09;28.27;;;16.95;;
58302;SDS011;44109;52.398;7.024;2024-02-21T05:56:37;33.95;;;19.15;;
58302;SDS011;44109;52.398;7.024;2024-02-21T05:59:06;37.92;;;22.02;;
58302;SDS011;44109;52.398;7.024;2024-02-21T06:01:33;27.17;;;17.60;;
58302;SDS011;44109;52.398;7.024;2024-02-21T06:04:02;33.03;;;19.67;;
58302;SDS011;44109;52.398;7.024;2024-02-21T06:06:31;29.95;;;17.67;;
58302;SDS011;44109;52.398;7.024;2024-02-21T06:08:59;31.63;;;17.90;;
58302;SDS011;44109;52.398;7.024;2024-02-21T06:11:28;27.63;;;14.77;;
58302;SDS011;44109;52.398;7.024;2024-02-21T06:13:56;29.25;;;17.83;;
58302;SDS011;44109;52.398;7.024;2024-02-21T06:16:23;29.85;;;15.15;;
58302;SDS011;44109;52.398;7.024;2024-02-21T06:18:51;23.48;;;15.13;;
58302;SDS011;44109;52.398;7.024;2024-02-21T06:21:18;43.40;;;20.88;;
58302;SDS011;44109;52.398;7.024;2024-02-21T06:23:47;32.03;;;18.15;;
58302;SDS011;44109;52.398;7.024;2024-02-21T06:26:15;23.85;;;14.82;;
58302;SDS011;44109;52.398;7.024;2024-02-21T06:28:43;24.65;;;15.05;;
58302;SDS011;44109;52.398;7.024;2024-02-21T06:31:12;25.73;;;15.35;;
58302;SDS011;44109;52.398;7.024;2024-02-21T06:33:42;25.58;;;15.70;;
58302;SDS011;44109;52.398;7.024;2024-02-21T06:36:09;31.45;;;18.38;;
58302;SDS011;44109;52.398;7.024;2024-02-21T06:38:37;25.90;;;15.60;;
58302;SDS011;44109;52.398;7.024;2024-02-21T06:41:06;25.88;;;15.10;;
58302;SDS011;44109;52.398;7.024;2024-02-21T06:43:41;26.67;;;15.38;;
58302;SDS011;44109;52.398;7.024;2024-02-21T06:46:10;23.15;;;13.88;;
58302;SDS011;44109;52.398;7.024;2024-02-21T06:48:37;33.80;;;16.88;;
58302;SDS011;44109;52.398;7.024;2024-02-21T06:51:05;28.00;;;15.10;;
58302;SDS011;44109;52.398;7.024;2024-02-21T06:53:32;24.08;;;14.73;;
58302;SDS011;44109;52.398;7.024;2024-02-21T06:56:00;23.05;;;13.23;;
58302;SDS011;44109;52.398;7.024;2024-02-21T06:58:32;18.70;;;12.88;;
58302;SDS011;44109;52.398;7.024;2024-02-21T07:01:00;20.75;;;12.30;;
58302;SDS011;44109;52.398;7.024;2024-02-21T07:03:27;28.45;;;16.95;;
58302;SDS011;44109;52.398;7.024;2024-02-21T07:05:55;22.08;;;12.68;;
58302;SDS011;44109;52.398;7.024;2024-02-21T07:08:22;16.70;;;12.00;;
58302;SDS011;44109;52.398;7.024;2024-02-21T07:10:50;21.73;;;12.38;;
58302;SDS011;44109;52.398;7.024;2024-02-21T07:13:17;24.35;;;13.80;;
58302;SDS011;44109;52.398;7.024;2024-02-21T07:15:48;27.90;;;14.95;;
58302;SDS011;44109;52.398;7.024;2024-02-21T07:18:15;16.17;;;10.60;;
58302;SDS011;44109;52.398;7.024;2024-02-21T07:20:43;21.63;;;11.40;;
58302;SDS011;44109;52.398;7.024;2024-02-21T07:23:11;18.58;;;12.82;;
58302;SDS011;44109;52.398;7.024;2024-02-21T07:25:38;19.52;;;10.50;;
58302;SDS011;44109;52.398;7.024;2024-02-21T07:28:06;24.20;;;11.90;;
58302;SDS011;44109;52.398;7.024;2024-02-21T07:30:34;20.10;;;11.93;;
58302;SDS011;44109;52.398;7.024;2024-02-21T07:33:04;22.50;;;12.43;;
58302;SDS011;44109;52.398;7.024;2024-02-21T07:35:33;20.23;;;12.60;;
58302;SDS011;44109;52.398;7.024;2024-02-21T07:38:04;18.83;;;11.45;;
58302;SDS011;44109;52.398;7.024;2024-02-21T07:40:38;20.42;;;11.57;;
58302;SDS011;44109;52.398;7.024;2024-02-21T07:43:06;15.90;;;9.85;;
58302;SDS011;44109;52.398;7.024;2024-02-21T07:45:33;22.73;;;13.23;;
58302;SDS011;44109;52.398;7.024;2024-02-21T07:48:01;23.23;;;12.90;;
58302;SDS011;44109;52.398;7.024;2024-02-21T07:50:30;26.50;;;14.32;;
58302;SDS011;44109;52.398;7.024;2024-02-21T07:52:58;24.48;;;14.15;;
58302;SDS011;44109;52.398;7.024;2024-02-21T07:55:26;31.52;;;15.10;;
58302;SDS011;44109;52.398;7.024;2024-02-21T07:57:53;20.10;;;11.45;;
58302;SDS011;44109;52.398;7.024;2024-02-21T08:00:21;23.50;;;13.02;;
58302;SDS011;44109;52.398;7.024;2024-02-21T08:02:49;23.13;;;13.57;;
58302;SDS011;44109;52.398;7.024;2024-02-21T08:05:16;22.05;;;12.60;;
58302;SDS011;44109;52.398;7.024;2024-02-21T08:07:45;18.35;;;12.23;;
58302;SDS011;44109;52.398;7.024;2024-02-21T08:10:15;23.27;;;14.02;;
58302;SDS011;44109;52.398;7.024;2024-02-21T08:12:43;26.13;;;15.00;;
58302;SDS011;44109;52.398;7.024;2024-02-21T08:15:11;28.17;;;14.15;;
58302;SDS011;44109;52.398;7.024;2024-02-21T08:17:38;20.80;;;12.75;;
58302;SDS011;44109;52.398;7.024;2024-02-21T08:20:07;22.63;;;13.05;;
58302;SDS011;44109;52.398;7.024;2024-02-21T08:22:37;23.98;;;12.68;;
58302;SDS011;44109;52.398;7.024;2024-02-21T08:25:06;18.77;;;13.05;;
58302;SDS011;44109;52.398;7.024;2024-02-21T08:27:34;23.25;;;15.20;;
58302;SDS011;44109;52.398;7.024;2024-02-21T08:30:01;25.50;;;13.45;;
58302;SDS011;44109;52.398;7.024;2024-02-21T08:32:29;23.50;;;12.57;;
58302;SDS011;44109;52.398;7.024;2024-02-21T08:34:57;24.63;;;13.95;;
58302;SDS011;44109;52.398;7.024;2024-02-21T08:37:24;29.73;;;13.27;;
58302;SDS011;44109;52.398;7.024;2024-02-21T08:39:54;21.05;;;12.07;;
58302;SDS011;44109;52.398;7.024;2024-02-21T08:42:23;21.95;;;12.95;;
58302;SDS011;44109;52.398;7.024;2024-02-21T08:44:50;20.85;;;12.63;;
58302;SDS011;44109;52.398;7.024;2024-02-21T08:47:18;23.08;;;13.07;;
58302;SDS011;44109;52.398;7.024;2024-02-21T08:49:45;24.70;;;12.93;;
58302;SDS011;44109;52.398;7.024;2024-02-21T08:52:14;19.40;;;10.48;;
58302;SDS011;44109;52.398;7.024;2024-02-21T08:54:41;21.98;;;11.40;;
58302;SDS011;44109;52.398;7.024;2024-02-21T08:57:09;18.23;;;10.40;;
58302;SDS011;44109;52.398;7.024;2024-02-21T08:59:38;23.55;;;11.32;;
58302;SDS011;44109;52.398;7.024;2024-02-21T09:02:06;22.55;;;11.07;;
58302;SDS011;44109;52.398;7.024;2024-02-21T09:04:34;18.25;;;10.05;;
58302;SDS011;44109;52.398;7.024;2024-02-21T09:07:02;19.80;;;10.10;;
58302;SDS011;44109;52.398;7.024;2024-02-21T09:09:30;20.17;;;11.15;;
58302;SDS011;44109;52.398;7.024;2024-02-21T09:11:59;16.35;;;9.43;;
58302;SDS011;44109;52.398;7.024;2024-02-21T09:14:31;16.92;;;9.98;;
58302;SDS011;44109;52.398;7.024;2024-02-21T09:17:00;17.08;;;8.48;;
58302;SDS011;44109;52.398;7.024;2024-02-21T09:19:29;13.70;;;8.52;;
58302;SDS011;44109;52.398;7.024;2024-02-21T09:21:57;15.43;;;9.52;;
58302;SDS011;44109;52.398;7.024;2024-02-21T09:24:25;15.35;;;10.02;;
58302;SDS011;44109;52.398;7.024;2024-02-21T09:26:52;22.50;;;12.15;;
58302;SDS011;44109;52.398;7.024;2024-02-21T09:29:20;16.42;;;9.98;;
58302;SDS011;44109;52.398;7.024;2024-02-21T09:31:47;17.27;;;10.27;;
58302;SDS011;44109;52.398;7.024;2024-02-21T09:34:16;13.95;;;8.88;;
58302;SDS011;44109;52.398;7.024;2024-02-21T09:36:44;16.83;;;8.85;;
58302;SDS011;44109;52.398;7.024;2024-02-21T09:39:11;16.25;;;9.77;;
58302;SDS011;44109;52.398;7.024;2024-02-21T09:41:45;17.42;;;10.68;;
58302;SDS011;44109;52.398;7.024;2024-02-21T09:44:21;14.82;;;8.98;;
58302;SDS011;44109;52.398;7.024;2024-02-21T09:46:51;18.23;;;9.13;;
58302;SDS011;44109;52.398;7.024;2024-02-21T09:49:31;14.15;;;7.55;;
58302;SDS011;44109;52.398;7.024;2024-02-21T09:52:00;16.75;;;9.43;;
58302;SDS011;44109;52.398;7.024;2024-02-21T09:54:30;21.75;;;11.50;;
58302;SDS011;44109;52.398;7.024;2024-02-21T09:57:00;20.20;;;10.82;;
58302;SDS011;44109;52.398;7.024;2024-02-21T09:59:28;16.85;;;9.30;;
58302;SDS011;44109;52.398;7.024;2024-02-21T10:01:59;19.08;;;10.27;;
58302;SDS011;44109;52.398;7.024;2024-02-21T10:04:27;23.83;;;10.85;;
58302;SDS011;44109;52.398;7.024;2024-02-21T10:06:57;20.23;;;10.93;;
58302;SDS011;44109;52.398;7.024;2024-02-21T10:09:25;16.95;;;9.70;;
58302;SDS011;44109;52.398;7.024;2024-02-21T10:11:54;15.40;;;8.93;;
58302;SDS011;44109;52.398;7.024;2024-02-21T10:14:23;17.67;;;9.23;;
58302;SDS011;44109;52.398;7.024;2024-02-21T10:16:56;14.30;;;8.48;;
58302;SDS011;44109;52.398;7.024;2024-02-21T10:19:25;16.23;;;9.65;;
58302;SDS011;44109;52.398;7.024;2024-02-21T10:22:01;15.77;;;8.60;;
58302;SDS011;44109;52.398;7.024;2024-02-21T10:24:30;19.85;;;9.32;;
58302;SDS011;44109;52.398;7.024;2024-02-21T10:27:02;14.88;;;8.80;;
58302;SDS011;44109;52.398;7.024;2024-02-21T10:29:34;12.68;;;8.35;;
58302;SDS011;44109;52.398;7.024;2024-02-21T10:32:05;14.68;;;8.23;;
58302;SDS011;44109;52.398;7.024;2024-02-21T10:34:34;14.60;;;8.52;;
58302;SDS011;44109;52.398;7.024;2024-02-21T10:37:05;15.73;;;8.65;;
58302;SDS011;44109;52.398;7.024;2024-02-21T10:39:34;15.30;;;7.82;;
58302;SDS011;44109;52.398;7.024;2024-02-21T10:42:06;13.50;;;8.18;;
58302;SDS011;44109;52.398;7.024;2024-02-21T10:44:37;11.48;;;7.47;;
58302;SDS011;44109;52.398;7.024;2024-02-21T10:47:09;21.92;;;9.43;;
58302;SDS011;44109;52.398;7.024;2024-02-21T10:49:40;17.17;;;9.20;;
58302;SDS011;44109;52.398;7.024;2024-02-21T10:52:13;14.13;;;7.70;;
58302;SDS011;44109;52.398;7.024;2024-02-21T10:54:44;15.55;;;9.05;;
58302;SDS011;44109;52.398;7.024;2024-02-21T10:57:18;11.65;;;7.40;;
58302;SDS011;44109;52.398;7.024;2024-02-21T10:59:49;16.15;;;9.45;;
58302;SDS011;44109;52.398;7.024;2024-02-21T11:02:18;12.25;;;7.85;;
58302;SDS011;44109;52.398;7.024;2024-02-21T11:04:46;13.80;;;7.03;;
58302;SDS011;44109;52.398;7.024;2024-02-21T11:07:19;12.70;;;7.22;;
58302;SDS011;44109;52.398;7.024;2024-02-21T11:09:50;13.45;;;7.05;;
58302;SDS011;44109;52.398;7.024;2024-02-21T11:12:21;12.70;;;7.97;;
58302;SDS011;44109;52.398;7.024;2024-02-21T11:14:50;12.93;;;7.68;;
58302;SDS011;44109;52.398;7.024;2024-02-21T11:17:18;9.65;;;5.95;;
58302;SDS011;44109;52.398;7.024;2024-02-21T11:19:50;12.02;;;6.65;;
58302;SDS011;44109;52.398;7.024;2024-02-21T11:22:19;13.02;;;6.75;;
58302;SDS011;44109;52.398;7.024;2024-02-21T11:24:48;11.65;;;6.65;;
58302;SDS011;44109;52.398;7.024;2024-02-21T11:27:18;8.93;;;5.47;;
58302;SDS011;44109;52.398;7.024;2024-02-21T11:29:54;10.15;;;6.50;;
58302;SDS011;44109;52.398;7.024;2024-02-21T11:32:24;11.90;;;6.85;;
58302;SDS011;44109;52.398;7.024;2024-02-21T11:34:54;13.30;;;6.32;;
58302;SDS011;44109;52.398;7.024;2024-02-21T11:37:25;9.65;;;5.63;;
58302;SDS011;44109;52.398;7.024;2024-02-21T11:39:54;10.15;;;6.22;;
58302;SDS011;44109;52.398;7.024;2024-02-21T11:42:22;7.65;;;5.50;;
58302;SDS011;44109;52.398;7.024;2024-02-21T11:44:51;7.72;;;5.30;;
58302;SDS011;44109;52.398;7.024;2024-02-21T11:47:22;10.02;;;6.10;;
58302;SDS011;44109;52.398;7.024;2024-02-21T11:49:53;7.55;;;6.05;;
58302;SDS011;44109;52.398;7.024;2024-02-21T11:52:21;10.40;;;4.70;;
58302;SDS011;44109;52.398;7.024;2024-02-21T11:54:52;9.02;;;4.63;;
58302;SDS011;44109;52.398;7.024;2024-02-21T11:57:20;11.50;;;4.93;;
58302;SDS011;44109;52.398;7.024;2024-02-21T11:59:48;6.72;;;4.03;;
58302;SDS011;44109;52.398;7.024;2024-02-21T12:02:17;8.52;;;4.03;;
58302;SDS011;44109;52.398;7.024;2024-02-21T12:04:47;11.82;;;5.18;;
58302;SDS011;44109;52.398;7.024;2024-02-21T12:07:18;5.97;;;3.33;;
58302;SDS011;44109;52.398;7.024;2024-02-21T12:09:46;7.13;;;3.85;;
58302;SDS011;44109;52.398;7.024;2024-02-21T12:12:19;6.45;;;3.92;;
58302;SDS011;44109;52.398;7.024;2024-02-21T12:14:54;5.97;;;3.65;;
58302;SDS011;44109;52.398;7.024;2024-02-21T12:17:30;10.35;;;4.10;;
58302;SDS011;44109;52.398;7.024;2024-02-21T12:20:02;5.00;;;3.08;;
58302;SDS011;44109;52.398;7.024;2024-02-21T12:22:35;7.18;;;4.18;;
58302;SDS011;44109;52.398;7.024;2024-02-21T12:25:04;6.55;;;3.92;;
58302;SDS011;44109;52.398;7.024;2024-02-21T12:27:47;8.60;;;4.05;;
58302;SDS011;44109;52.398;7.024;2024-02-21T12:30:18;8.10;;;3.88;;
58302;SDS011;44109;52.398;7.024;2024-02-21T12:32:47;8.98;;;5.25;;
58302;SDS011;44109;52.398;7.024;2024-02-21T12:35:16;9.07;;;4.25;;
58302;SDS011;44109;52.398;7.024;2024-02-21T12:37:45;10.15;;;5.53;;
58302;SDS011;44109;52.398;7.024;2024-02-21T12:40:14;7.85;;;4.30;;
58302;SDS011;44109;52.398;7.024;2024-02-21T12:42:44;7.40;;;4.47;;
58302;SDS011;44109;52.398;7.024;2024-02-21T12:45:14;8.77;;;4.80;;
58302;SDS011;44109;52.398;7.024;2024-02-21T12:47:43;14.95;;;7.28;;
58302;SDS011;44109;52.398;7.024;2024-02-21T12:50:12;8.57;;;5.90;;
58302;SDS011;44109;52.398;7.024;2024-02-21T12:52:42;12.82;;;6.18;;
58302;SDS011;44109;52.398;7.024;2024-02-21T12:55:11;8.65;;;5.22;;
58302;SDS011;44109;52.398;7.024;2024-02-21T12:57:43;11.73;;;5.93;;
58302;SDS011;44109;52.398;7.024;2024-02-21T13:00:14;12.93;;;6.88;;
58302;SDS011;44109;52.398;7.024;2024-02-21T13:02:44;10.68;;;5.25;;
58302;SDS011;44109;52.398;7.024;2024-02-21T13:05:12;9.05;;;5.38;;
58302;SDS011;44109;52.398;7.024;2024-02-21T13:07:41;11.50;;;5.95;;
58302;SDS011;44109;52.398;7.024;2024-02-21T13:10:11;10.18;;;7.43;;
58302;SDS011;44109;52.398;7.024;2024-02-21T13:12:41;8.63;;;5.97;;
58302;SDS011;44109;52.398;7.024;2024-02-21T13:15:10;8.23;;;5.18;;
58302;SDS011;44109;52.398;7.024;2024-02-21T13:17:43;8.32;;;5.68;;
58302;SDS011;44109;52.398;7.024;2024-02-21T13:20:13;9.90;;;5.85;;
58302;SDS011;44109;52.398;7.024;2024-02-21T13:22:46;6.78;;;4.97;;
58302;SDS011;44109;52.398;7.024;2024-02-21T13:25:14;10.27;;;5.22;;
58302;SDS011;44109;52.398;7.024;2024-02-21T13:27:46;12.35;;;5.88;;
58302;SDS011;44109;52.398;7.024;2024-02-21T13:30:14;10.63;;;5.53;;
58302;SDS011;44109;52.398;7.024;2024-02-21T13:32:45;8.43;;;4.93;;
58302;SDS011;44109;52.398;7.024;2024-02-21T13:35:13;7.05;;;4.95;;
58302;SDS011;44109;52.398;7.024;2024-02-21T13:37:43;10.43;;;4.75;;
58302;SDS011;44109;52.398;7.024;2024-02-21T13:40:15;9.23;;;5.15;;
58302;SDS011;44109;52.398;7.024;2024-02-21T13:42:44;10.50;;;4.95;;
58302;SDS011;44109;52.398;7.024;2024-02-21T13:45:15;7.93;;;5.13;;
58302;SDS011;44109;52.398;7.024;2024-02-21T13:47:43;7.35;;;4.68;;
58302;SDS011;44109;52.398;7.024;2024-02-21T13:50:15;9.13;;;4.93;;
58302;SDS011;44109;52.398;7.024;2024-02-21T13:52:44;6.95;;;4.95;;
58302;SDS011;44109;52.398;7.024;2024-02-21T13:55:12;10.35;;;5.20;;
58302;SDS011;44109;52.398;7.024;2024-02-21T13:57:40;8.02;;;4.95;;
58302;SDS011;44109;52.398;7.024;2024-02-21T14:00:08;6.97;;;3.97;;
58302;SDS011;44109;52.398;7.024;2024-02-21T14:02:37;8.45;;;4.68;;
58302;SDS011;44109;52.398;7.024;2024-02-21T14:05:08;9.52;;;5.25;;
58302;SDS011;44109;52.398;7.024;2024-02-21T14:07:40;11.68;;;6.25;;
58302;SDS011;44109;52.398;7.024;2024-02-21T14:10:08;8.32;;;4.90;;
58302;SDS011;44109;52.398;7.024;2024-02-21T14:12:36;7.18;;;4.80;;
58302;SDS011;44109;52.398;7.024;2024-02-21T14:15:06;9.95;;;4.50;;
58302;SDS011;44109;52.398;7.024;2024-02-21T14:17:34;11.75;;;5.32;;
58302;SDS011;44109;52.398;7.024;2024-02-21T14:20:05;8.00;;;4.63;;
58302;SDS011;44109;52.398;7.024;2024-02-21T14:22:42;10.07;;;5.05;;
58302;SDS011;44109;52.398;7.024;2024-02-21T14:25:12;13.85;;;6.22;;
58302;SDS011;44109;52.398;7.024;2024-02-21T14:27:42;9.77;;;4.47;;
58302;SDS011;44109;52.398;7.024;2024-02-21T14:30:11;10.30;;;5.63;;
58302;SDS011;44109;52.398;7.024;2024-02-21T14:32:43;12.05;;;4.80;;
58302;SDS011;44109;52.398;7.024;2024-02-21T14:35:16;8.40;;;4.60;;
58302;SDS011;44109;52.398;7.024;2024-02-21T14:37:45;7.43;;;5.38;;